createdAt,value
2023-05-23T00:02:01.953Z,16.85
2023-05-23T00:04:30.823Z,16.70
2023-05-23T00:06:59.064Z,17.30
2023-05-23T00:09:28.198Z,16.90
2023-05-23T00:14:23.656Z,17.00
2023-05-23T00:16:51.759Z,16.92
2023-05-23T00:19:19.679Z,17.27
2023-05-23T00:21:49.581Z,16.98
2023-05-23T00:24:18.789Z,16.60
2023-05-23T00:26:48.197Z,17.30
2023-05-23T00:31:46.510Z,17.02
2023-05-23T00:34:14.667Z,16.83
2023-05-23T00:36:44.372Z,17.00
2023-05-23T00:39:19.182Z,16.98
2023-05-23T00:41:52.156Z,16.90
2023-05-23T00:44:21.378Z,16.98
2023-05-23T00:46:52.532Z,17.25
2023-05-23T00:49:21.055Z,16.95
2023-05-23T00:51:49.766Z,16.58
2023-05-23T00:54:19.413Z,16.73
2023-05-23T00:56:48.310Z,17.45
2023-05-23T00:59:17.604Z,17.52
2023-05-23T01:01:47.180Z,17.08
2023-05-23T01:04:16.764Z,17.60
2023-05-23T01:06:47.077Z,17.45
2023-05-23T01:09:15.648Z,17.33
2023-05-23T01:11:47.322Z,17.58
2023-05-23T01:14:25.299Z,16.67
2023-05-23T01:16:57.244Z,16.58
2023-05-23T01:19:58.413Z,16.38
2023-05-23T01:22:35.209Z,16.92
2023-05-23T01:25:10.920Z,17.75
2023-05-23T01:27:52.461Z,18.92
2023-05-23T01:30:21.273Z,16.92
2023-05-23T01:32:50.106Z,17.10
2023-05-23T01:35:21.294Z,16.88
2023-05-23T01:37:51.235Z,17.25
2023-05-23T01:40:19.084Z,17.40
2023-05-23T01:42:48.263Z,17.70
2023-05-23T01:45:16.361Z,18.00
2023-05-23T01:47:44.775Z,18.02
2023-05-23T01:50:13.324Z,17.80
2023-05-23T01:52:41.274Z,17.23
2023-05-23T01:55:12.015Z,18.08
2023-05-23T01:57:40.246Z,17.38
2023-05-23T02:00:12.236Z,17.73
2023-05-23T02:02:40.244Z,17.88
2023-05-23T02:05:08.432Z,17.88
2023-05-23T02:07:36.337Z,17.73
2023-05-23T02:10:05.070Z,17.27
2023-05-23T02:12:32.856Z,17.77
2023-05-23T02:15:03.358Z,17.20
2023-05-23T02:17:32.633Z,18.20
2023-05-23T02:20:00.504Z,17.55
2023-05-23T02:22:28.253Z,17.80
2023-05-23T02:24:55.978Z,17.35
2023-05-23T02:27:23.953Z,17.45
2023-05-23T02:29:51.720Z,17.70
2023-05-23T02:32:19.453Z,17.13
2023-05-23T02:34:50.296Z,17.98
2023-05-23T02:37:18.278Z,17.80
2023-05-23T02:39:45.983Z,17.58
2023-05-23T02:42:13.759Z,17.33
2023-05-23T02:44:41.540Z,17.75
2023-05-23T02:47:09.292Z,17.48
2023-05-23T02:49:37.044Z,18.00
2023-05-23T02:52:06.677Z,16.67
2023-05-23T02:54:34.524Z,16.92
2023-05-23T02:57:02.288Z,17.02
2023-05-23T02:59:29.999Z,17.08
2023-05-23T03:01:57.836Z,17.77
2023-05-23T03:04:25.676Z,17.10
2023-05-23T03:06:54.401Z,16.65
2023-05-23T03:09:23.596Z,16.52
2023-05-23T03:11:51.427Z,17.45
2023-05-23T03:14:19.273Z,15.80
2023-05-23T03:16:49.595Z,17.05
2023-05-23T03:19:17.420Z,16.58
2023-05-23T03:21:45.283Z,17.63
2023-05-23T03:24:13.101Z,16.30
2023-05-23T03:26:42.188Z,17.80
2023-05-23T03:31:38.951Z,17.55
2023-05-23T03:34:06.711Z,17.20
2023-05-23T03:36:35.845Z,18.10
2023-05-23T03:39:03.739Z,17.60
2023-05-23T03:41:31.488Z,18.88
2023-05-23T03:44:00.820Z,18.65
2023-05-23T03:46:28.636Z,18.00
2023-05-23T03:48:56.504Z,18.20
2023-05-23T03:51:24.372Z,18.40
2023-05-23T03:53:52.171Z,17.58
2023-05-23T03:56:19.953Z,17.83
2023-05-23T03:58:47.729Z,17.52
2023-05-23T04:01:16.848Z,18.33
2023-05-23T04:06:14.285Z,17.30
2023-05-23T04:08:43.591Z,16.73
2023-05-23T04:13:39.020Z,17.58
2023-05-23T04:16:07.699Z,17.75
2023-05-23T04:18:39.121Z,18.23
2023-05-23T04:21:07.144Z,19.27
2023-05-23T04:23:35.002Z,18.75
2023-05-23T04:26:02.740Z,17.95
2023-05-23T04:28:30.492Z,17.63
2023-05-23T04:30:58.546Z,18.45
2023-05-23T04:33:28.314Z,18.25
2023-05-23T04:35:57.546Z,18.83
2023-05-23T04:40:54.115Z,16.92
2023-05-23T04:43:21.998Z,17.80
2023-05-23T04:45:51.623Z,18.48
2023-05-23T04:48:21.611Z,18.65
2023-05-23T04:50:51.221Z,18.35
2023-05-23T04:53:20.435Z,18.55
2023-05-23T04:55:48.341Z,18.02
2023-05-23T04:58:16.320Z,18.85
2023-05-23T05:00:44.566Z,17.77
2023-05-23T05:03:12.654Z,18.38
2023-05-23T05:05:40.742Z,18.98
2023-05-23T05:08:08.520Z,18.08
2023-05-23T05:10:37.750Z,18.05
2023-05-23T05:13:05.559Z,18.40
2023-05-23T05:15:33.617Z,18.48
2023-05-23T05:18:01.416Z,18.38
2023-05-23T05:20:29.325Z,18.38
2023-05-23T05:22:58.256Z,18.30
2023-05-23T05:25:27.482Z,18.58
2023-05-23T05:27:56.672Z,18.67
2023-05-23T05:30:24.767Z,18.17
2023-05-23T05:32:52.569Z,18.77
2023-05-23T05:35:21.102Z,19.10
2023-05-23T05:37:48.860Z,19.38
2023-05-23T05:40:16.786Z,19.10
2023-05-23T05:42:44.588Z,19.55
2023-05-23T05:45:13.844Z,20.23
2023-05-23T05:47:44.821Z,18.98
2023-05-23T05:50:12.960Z,19.92
2023-05-23T05:52:40.803Z,19.13
2023-05-23T05:55:11.286Z,19.05
2023-05-23T05:57:39.361Z,19.42
2023-05-23T06:00:12.807Z,19.58
2023-05-23T06:02:42.563Z,22.20
2023-05-23T06:05:12.483Z,19.02
2023-05-23T06:07:40.644Z,18.92
2023-05-23T06:10:09.334Z,18.67
2023-05-23T06:12:37.282Z,18.73
2023-05-23T06:15:05.707Z,19.10
2023-05-23T06:17:33.587Z,19.25
2023-05-23T06:20:04.108Z,18.55
2023-05-23T06:22:32.085Z,19.23
2023-05-23T06:24:59.994Z,18.75
2023-05-23T06:27:27.793Z,18.50
2023-05-23T06:29:55.631Z,19.63
2023-05-23T06:32:23.618Z,18.08
2023-05-23T06:34:51.435Z,17.85
2023-05-23T06:37:20.559Z,18.98
2023-05-23T06:42:16.530Z,18.20
2023-05-23T06:44:44.332Z,17.25
2023-05-23T06:47:12.127Z,18.95
2023-05-23T06:49:39.864Z,19.65
2023-05-23T06:52:07.652Z,19.08
2023-05-23T06:54:36.759Z,18.23
2023-05-23T06:59:32.450Z,18.00
2023-05-23T07:02:00.232Z,18.52
2023-05-23T07:04:28.059Z,18.35
2023-05-23T07:06:55.863Z,17.95
2023-05-23T07:09:23.816Z,17.65
2023-05-23T07:11:53.039Z,17.42
2023-05-23T07:14:20.878Z,17.60
2023-05-23T07:16:48.659Z,17.10
2023-05-23T07:19:16.598Z,17.95
2023-05-23T07:21:44.445Z,19.58
2023-05-23T07:24:12.198Z,21.10
2023-05-23T07:26:40.115Z,19.23
2023-05-23T07:29:09.236Z,18.00
2023-05-23T07:34:04.975Z,17.67
2023-05-23T07:36:34.243Z,18.58
2023-05-23T07:39:02.375Z,19.63
2023-05-23T07:41:30.185Z,18.50
2023-05-23T07:43:57.974Z,18.85
2023-05-23T07:46:27.204Z,18.42
2023-05-23T07:48:55.473Z,17.35
2023-05-23T07:51:23.239Z,17.77
2023-05-23T07:53:51.048Z,18.00
2023-05-23T07:56:19.906Z,18.67
2023-05-23T07:58:47.678Z,17.95
2023-05-23T08:01:15.519Z,18.42
2023-05-23T08:03:47.064Z,18.10
2023-05-23T08:06:14.974Z,18.38
2023-05-23T08:08:43.750Z,18.55
2023-05-23T08:11:11.616Z,18.15
2023-05-23T08:13:39.466Z,18.60
2023-05-23T08:16:07.453Z,18.45
2023-05-23T08:18:36.327Z,17.45
2023-05-23T08:21:07.224Z,17.73
2023-05-23T08:23:35.148Z,18.52
2023-05-23T08:26:02.973Z,17.77
2023-05-23T08:28:30.763Z,17.38
2023-05-23T08:31:00.898Z,18.50
2023-05-23T08:33:31.697Z,17.65
2023-05-23T08:35:59.509Z,17.48
2023-05-23T08:38:28.924Z,18.58
2023-05-23T08:40:58.981Z,18.48
2023-05-23T08:43:27.037Z,18.38
2023-05-23T08:45:55.313Z,18.73
2023-05-23T08:48:24.081Z,20.30
2023-05-23T08:50:52.304Z,18.35
2023-05-23T08:53:22.354Z,18.52
2023-05-23T08:55:52.282Z,18.20
2023-05-23T08:58:22.632Z,17.95
2023-05-23T09:00:51.346Z,18.92
2023-05-23T09:03:20.076Z,17.83
2023-05-23T09:05:48.296Z,17.65
2023-05-23T09:08:16.386Z,17.77
2023-05-23T09:10:44.297Z,18.75
2023-05-23T09:13:13.477Z,17.73
2023-05-23T09:18:16.525Z,18.45
2023-05-23T09:20:46.128Z,17.42
2023-05-23T09:23:13.972Z,17.58
2023-05-23T09:25:47.762Z,18.15
2023-05-23T09:28:17.023Z,17.98
2023-05-23T09:30:44.813Z,18.00
2023-05-23T09:33:15.364Z,19.13
2023-05-23T09:35:46.195Z,18.63
2023-05-23T09:38:14.039Z,18.30
2023-05-23T09:40:46.195Z,18.63
2023-05-23T09:43:13.985Z,19.27
2023-05-23T09:45:43.135Z,18.27
2023-05-23T09:50:41.394Z,19.20
2023-05-23T09:53:09.343Z,17.80
2023-05-23T09:55:37.115Z,19.38
2023-05-23T09:58:05.610Z,18.38
2023-05-23T10:00:33.651Z,18.60
2023-05-23T10:03:10.976Z,17.80
2023-05-23T10:05:41.179Z,18.13
2023-05-23T10:08:12.243Z,17.88
2023-05-23T10:11:10.604Z,18.20
2023-05-23T10:13:38.623Z,19.20
2023-05-23T10:16:10.230Z,17.80
2023-05-23T10:18:44.355Z,18.80
2023-05-23T10:21:14.242Z,18.50
2023-05-23T10:23:44.666Z,18.67
2023-05-23T10:26:12.816Z,17.98
2023-05-23T10:28:41.811Z,17.77
2023-05-23T10:33:42.582Z,18.13
2023-05-23T10:36:11.903Z,18.83
2023-05-23T10:38:42.714Z,17.95
2023-05-23T10:41:12.726Z,17.95
2023-05-23T10:43:46.811Z,17.35
2023-05-23T10:46:15.111Z,17.85
2023-05-23T10:48:45.285Z,19.02
2023-05-23T10:51:14.552Z,18.23
2023-05-23T10:53:43.954Z,18.60
2023-05-23T10:56:12.915Z,17.83
2023-05-23T11:01:09.531Z,18.08
2023-05-23T11:03:39.267Z,18.65
2023-05-23T11:06:09.077Z,17.35
2023-05-23T11:08:48.426Z,18.17
2023-05-23T11:11:16.868Z,17.02
2023-05-23T11:14:00.436Z,16.70
2023-05-23T11:16:30.455Z,17.70
2023-05-23T11:19:25.549Z,17.02
2023-05-23T11:21:58.480Z,17.38
2023-05-23T11:24:50.128Z,16.83
2023-05-23T11:27:20.171Z,16.95
2023-05-23T11:30:00.869Z,16.92
2023-05-23T11:32:32.422Z,17.65
2023-05-23T11:35:01.549Z,19.23
2023-05-23T11:37:31.424Z,17.95
2023-05-23T11:39:59.516Z,17.90
2023-05-23T11:42:27.349Z,19.03
2023-05-23T11:44:55.414Z,18.70
2023-05-23T11:47:23.255Z,19.30
2023-05-23T11:49:51.088Z,18.38
2023-05-23T11:52:18.920Z,18.63
2023-05-23T11:54:48.084Z,17.75
2023-05-23T11:57:15.921Z,17.77
2023-05-23T11:59:43.767Z,17.15
2023-05-23T12:02:11.667Z,17.85
2023-05-23T12:04:42.451Z,18.10
2023-05-23T12:07:10.345Z,17.45
2023-05-23T12:09:44.730Z,17.35
2023-05-23T12:12:14.246Z,17.50
2023-05-23T12:14:44.813Z,18.08
2023-05-23T12:17:13.809Z,18.17
2023-05-23T12:19:46.719Z,18.10
2023-05-23T12:22:14.485Z,17.75
2023-05-23T12:24:47.554Z,18.20
2023-05-23T12:27:18.607Z,17.70
2023-05-23T12:29:52.307Z,17.42
2023-05-23T12:32:20.161Z,17.77
2023-05-23T12:34:48.029Z,17.40
2023-05-23T12:37:20.194Z,17.38
2023-05-23T12:39:48.712Z,17.23
2023-05-23T12:42:17.913Z,17.40
2023-05-23T12:44:46.168Z,16.60
2023-05-23T12:47:15.102Z,17.77
2023-05-23T12:49:44.801Z,18.65
2023-05-23T12:52:12.644Z,18.02
2023-05-23T12:54:40.450Z,17.65
2023-05-23T12:57:08.245Z,17.85
2023-05-23T12:59:37.378Z,16.90
2023-05-23T13:02:05.220Z,17.30
2023-05-23T13:04:33.246Z,18.50
2023-05-23T13:07:01.074Z,17.80
2023-05-23T13:09:28.900Z,17.70
2023-05-23T13:11:56.853Z,17.47
2023-05-23T13:14:24.614Z,17.65
2023-05-23T13:16:53.827Z,17.25
2023-05-23T13:19:21.710Z,17.73
2023-05-23T13:21:50.060Z,16.83
2023-05-23T13:24:18.005Z,17.90
2023-05-23T13:26:45.889Z,17.17
2023-05-23T13:29:14.781Z,18.05
2023-05-23T13:31:42.608Z,17.98
2023-05-23T13:34:11.823Z,18.15
2023-05-23T13:36:39.672Z,17.85
2023-05-23T13:39:07.771Z,17.55
2023-05-23T13:41:35.618Z,17.85
2023-05-23T13:44:04.137Z,17.98
2023-05-23T13:46:31.989Z,17.85
2023-05-23T13:48:59.892Z,17.97
2023-05-23T13:51:29.135Z,17.90
2023-05-23T13:53:56.977Z,17.10
2023-05-23T13:56:25.472Z,17.80
2023-05-23T13:58:53.500Z,17.92
2023-05-23T14:01:21.448Z,18.17
2023-05-23T14:03:49.270Z,17.73
2023-05-23T14:06:17.136Z,17.25
2023-05-23T14:08:46.462Z,18.40
2023-05-23T14:11:14.333Z,17.80
2023-05-23T14:13:42.118Z,16.58
2023-05-23T14:16:09.975Z,17.73
2023-05-23T14:18:37.854Z,17.98
2023-05-23T14:21:06.201Z,17.55
2023-05-23T14:23:33.980Z,17.70
2023-05-23T14:26:03.267Z,17.38
2023-05-23T14:28:31.413Z,17.05
2023-05-23T14:30:59.301Z,17.25
2023-05-23T14:33:27.489Z,17.23
2023-05-23T14:35:55.344Z,16.38
2023-05-23T14:38:23.352Z,17.10
2023-05-23T14:40:51.171Z,18.47
2023-05-23T14:43:20.399Z,17.48
2023-05-23T14:45:48.284Z,18.00
2023-05-23T14:48:16.213Z,17.75
2023-05-23T14:50:44.017Z,17.38
2023-05-23T14:53:11.918Z,17.20
2023-05-23T14:55:39.878Z,17.95
2023-05-23T14:58:07.865Z,17.20
2023-05-23T15:00:37.063Z,17.50
2023-05-23T15:03:05.036Z,16.63
2023-05-23T15:05:33.032Z,17.40
2023-05-23T15:08:01.414Z,17.75
2023-05-23T15:10:29.208Z,16.75
2023-05-23T15:12:57.343Z,17.73
2023-05-23T15:15:27.021Z,16.97
2023-05-23T15:17:56.317Z,17.38
2023-05-23T15:20:24.183Z,17.83
2023-05-23T15:22:51.948Z,17.05
2023-05-23T15:25:30.317Z,17.30
2023-05-23T15:28:06.805Z,16.75
2023-05-23T15:30:36.253Z,17.40
2023-05-23T15:33:07.400Z,17.55
2023-05-23T15:35:35.255Z,17.98
2023-05-23T15:38:02.997Z,17.63
2023-05-23T15:40:31.058Z,18.40
2023-05-23T15:42:58.816Z,19.27
2023-05-23T15:45:26.628Z,19.33
2023-05-23T15:47:54.479Z,18.02
2023-05-23T15:50:23.678Z,18.13
2023-05-23T15:52:51.460Z,17.73
2023-05-23T15:55:19.474Z,17.15
2023-05-23T15:57:47.251Z,16.77
2023-05-23T16:00:16.412Z,17.05
2023-05-23T16:02:44.338Z,17.65
2023-05-23T16:05:12.123Z,16.80
2023-05-23T16:07:41.287Z,16.45
2023-05-23T16:10:09.839Z,16.95
2023-05-23T16:12:37.623Z,16.88
2023-05-23T16:15:06.082Z,17.98
2023-05-23T16:17:33.841Z,17.10
2023-05-23T16:20:03.028Z,17.80
2023-05-23T16:22:31.164Z,17.58
2023-05-23T16:25:00.353Z,17.97
2023-05-23T16:27:28.196Z,17.08
2023-05-23T16:29:55.960Z,17.63
2023-05-23T16:32:23.789Z,18.02
2023-05-23T16:34:54.496Z,18.52
2023-05-23T16:37:22.729Z,18.25
2023-05-23T16:39:50.632Z,18.58
2023-05-23T16:42:19.776Z,17.83
2023-05-23T16:44:50.339Z,17.77
2023-05-23T16:47:18.246Z,17.67
2023-05-23T16:49:46.049Z,18.20
2023-05-23T16:52:13.804Z,17.52
2023-05-23T16:54:43.615Z,17.60
2023-05-23T16:57:11.675Z,17.58
2023-05-23T16:59:41.860Z,17.67
2023-05-23T17:02:11.535Z,17.10
2023-05-23T17:04:39.317Z,17.42
2023-05-23T17:07:08.581Z,17.23
2023-05-23T17:09:39.412Z,17.75
2023-05-23T17:12:07.886Z,17.00
2023-05-23T17:14:35.677Z,17.10
2023-05-23T17:17:05.430Z,17.60
2023-05-23T17:19:33.346Z,17.52
2023-05-23T17:22:01.160Z,16.42
2023-05-23T17:24:28.993Z,17.85
2023-05-23T17:26:56.849Z,17.23
2023-05-23T17:29:24.796Z,16.98
2023-05-23T17:31:57.537Z,17.15
2023-05-23T17:34:27.306Z,16.75
2023-05-23T17:36:55.317Z,17.40
2023-05-23T17:39:23.549Z,16.15
2023-05-23T17:41:51.351Z,17.20
2023-05-23T17:44:19.605Z,17.30
2023-05-23T17:46:47.357Z,17.80
2023-05-23T17:49:15.246Z,17.42
2023-05-23T17:51:44.376Z,17.30
2023-05-23T17:56:40.312Z,17.83
2023-05-23T17:59:08.422Z,19.25
2023-05-23T18:01:37.567Z,17.88
2023-05-23T18:04:05.688Z,18.35
2023-05-23T18:06:33.535Z,17.17
2023-05-23T18:09:02.660Z,17.15
2023-05-23T18:13:58.181Z,17.05
2023-05-23T18:16:26.004Z,17.73
2023-05-23T18:18:53.831Z,17.02
2023-05-23T18:21:23.730Z,17.30
2023-05-23T18:23:51.569Z,17.40
2023-05-23T18:26:21.362Z,17.08
2023-05-23T18:28:49.143Z,17.58
2023-05-23T18:31:16.989Z,16.95
2023-05-23T18:33:44.935Z,17.15
2023-05-23T18:36:12.745Z,16.75
2023-05-23T18:38:41.633Z,18.05
2023-05-23T18:41:14.574Z,17.70
2023-05-23T18:43:44.176Z,18.45
2023-05-23T18:46:12.009Z,19.33
2023-05-23T18:48:40.728Z,18.63
2023-05-23T18:51:08.519Z,18.63
2023-05-23T18:53:36.440Z,18.55
2023-05-23T18:56:04.290Z,19.05
2023-05-23T18:58:32.464Z,19.02
2023-05-23T19:01:03.962Z,17.40
2023-05-23T19:03:33.533Z,18.23
2023-05-23T19:06:03.271Z,18.50
2023-05-23T19:08:31.719Z,17.73
2023-05-23T19:10:59.518Z,17.50
2023-05-23T19:13:27.335Z,17.90
2023-05-23T19:15:55.233Z,17.50
2023-05-23T19:18:24.444Z,17.13
2023-05-23T19:23:21.005Z,17.10
2023-05-23T19:25:48.827Z,17.23
2023-05-23T19:28:16.984Z,17.05
2023-05-23T19:30:45.062Z,17.27
2023-05-23T19:33:12.891Z,16.80
2023-05-23T19:35:42.388Z,17.48
2023-05-23T19:38:10.182Z,16.33
2023-05-23T19:40:38.029Z,16.10
2023-05-23T19:43:05.868Z,16.42
2023-05-23T19:45:33.643Z,15.60
2023-05-23T19:48:01.845Z,16.95
2023-05-23T19:50:29.684Z,16.50
2023-05-23T19:52:58.885Z,16.52
2023-05-23T19:57:54.342Z,15.55
2023-05-23T20:00:22.437Z,16.60
2023-05-23T20:02:50.527Z,16.05
2023-05-23T20:05:18.412Z,16.83
2023-05-23T20:07:46.250Z,16.88
2023-05-23T20:10:16.771Z,17.08
2023-05-23T20:12:44.613Z,16.08
2023-05-23T20:15:14.557Z,15.95
2023-05-23T20:17:42.519Z,16.13
2023-05-23T20:20:11.646Z,17.17
2023-05-23T20:22:39.576Z,15.43
2023-05-23T20:25:08.312Z,15.65
2023-05-23T20:27:37.469Z,16.17
2023-05-23T20:30:06.238Z,17.08
2023-05-23T20:32:34.102Z,16.85
2023-05-23T20:35:02.018Z,16.65
2023-05-23T20:37:30.351Z,15.88
2023-05-23T20:39:58.103Z,15.50
2023-05-23T20:42:26.707Z,16.08
2023-05-23T20:44:56.963Z,16.80
2023-05-23T20:47:25.724Z,20.80
2023-05-23T20:49:53.648Z,15.63
2023-05-23T20:52:22.913Z,15.65
2023-05-23T20:57:20.388Z,15.85
2023-05-23T20:59:49.321Z,15.55
2023-05-23T21:02:18.555Z,16.02
2023-05-23T21:04:46.476Z,16.25
2023-05-23T21:07:14.406Z,15.65
2023-05-23T21:09:42.201Z,15.75
2023-05-23T21:12:11.520Z,15.60
2023-05-23T21:14:39.478Z,15.70
2023-05-23T21:17:07.377Z,16.25
2023-05-23T21:19:36.751Z,15.52
2023-05-23T21:22:04.912Z,15.35
2023-05-23T21:24:32.780Z,15.80
2023-05-23T21:27:01.699Z,15.95
2023-05-23T21:29:29.594Z,16.45
2023-05-23T21:31:57.553Z,15.35
2023-05-23T21:34:25.424Z,15.90
2023-05-23T21:36:54.617Z,15.25
2023-05-23T21:41:49.989Z,15.35
2023-05-23T21:44:18.902Z,16.13
2023-05-23T21:46:48.836Z,15.70
2023-05-23T21:49:16.845Z,14.85
2023-05-23T21:51:44.669Z,15.80
2023-05-23T21:54:13.860Z,15.32
2023-05-23T21:59:09.549Z,15.07
2023-05-23T22:01:37.406Z,15.82
2023-05-23T22:04:05.455Z,15.50
2023-05-23T22:06:33.588Z,16.52
2023-05-23T22:09:01.738Z,16.05
2023-05-23T22:11:33.948Z,16.40
2023-05-23T22:14:02.179Z,16.60
2023-05-23T22:16:32.842Z,15.77
2023-05-23T22:19:02.105Z,16.05
2023-05-23T22:23:57.933Z,16.20
2023-05-23T22:26:25.759Z,15.10
2023-05-23T22:28:54.896Z,15.75
2023-05-23T22:31:24.135Z,15.60
2023-05-23T22:33:52.228Z,15.40
2023-05-23T22:36:20.042Z,15.00
2023-05-23T22:38:47.821Z,16.55
2023-05-23T22:41:15.853Z,16.15
2023-05-23T22:43:43.728Z,15.68
2023-05-23T22:46:12.979Z,15.98
2023-05-23T22:48:40.797Z,16.60
2023-05-23T22:51:12.410Z,15.77
2023-05-23T22:53:41.176Z,15.93
2023-05-23T22:56:09.096Z,17.02
2023-05-23T22:58:36.901Z,15.80
2023-05-23T23:01:04.840Z,15.82
2023-05-23T23:03:34.065Z,16.20
2023-05-23T23:08:29.598Z,16.80
2023-05-23T23:10:57.357Z,16.58
2023-05-23T23:13:25.131Z,16.08
2023-05-23T23:15:52.898Z,16.02
2023-05-23T23:18:20.913Z,15.32
2023-05-23T23:20:50.108Z,16.20
2023-05-23T23:25:50.037Z,15.50
2023-05-23T23:28:18.337Z,16.25
2023-05-23T23:30:46.143Z,16.48
2023-05-23T23:33:14.613Z,15.10
2023-05-23T23:35:45.537Z,16.05
2023-05-23T23:38:14.764Z,15.90
2023-05-23T23:40:44.452Z,16.00
2023-05-23T23:43:12.392Z,16.20
2023-05-23T23:45:40.198Z,16.63
2023-05-23T23:48:08.101Z,15.80
2023-05-23T23:50:35.940Z,16.05
2023-05-23T23:53:04.457Z,15.73
2023-05-23T23:55:33.610Z,16.83
2023-05-23T23:58:01.401Z,15.60
